createdAt,value
2023-01-06T00:03:41.753Z,11.09
2023-01-06T00:08:41.803Z,11.09
2023-01-06T00:13:41.593Z,11.06
2023-01-06T00:18:40.780Z,11.02
2023-01-06T00:23:40.706Z,10.98
2023-01-06T00:28:40.494Z,10.95
2023-01-06T00:33:40.219Z,10.94
2023-01-06T00:38:38.003Z,10.93
2023-01-06T00:43:37.898Z,10.94
2023-01-06T00:48:36.822Z,10.94
2023-01-06T00:53:36.523Z,10.94
2023-01-06T00:58:35.440Z,10.92
2023-01-06T00:59:56.476Z,10.93
2023-01-06T01:04:56.690Z,10.92
2023-01-06T01:09:55.951Z,10.95
2023-01-06T01:14:54.439Z,11.01
2023-01-06T01:19:54.288Z,11.03
2023-01-06T01:24:53.889Z,11.04
2023-01-06T01:29:54.977Z,11.08
2023-01-06T01:34:51.242Z,11.1
2023-01-06T01:39:51.210Z,11.14
2023-01-06T01:44:50.884Z,11.18
2023-01-06T01:49:50.562Z,11.21
2023-01-06T01:54:47.877Z,11.24
2023-01-06T01:59:07.930Z,11.25
2023-01-06T02:04:08.208Z,11.24
2023-01-06T02:09:09.867Z,11.28
2023-01-06T02:14:06.854Z,11.31
2023-01-06T02:19:05.982Z,11.33
2023-01-06T02:24:04.797Z,11.34
2023-01-06T02:29:04.741Z,11.35
2023-01-06T02:34:02.042Z,11.33
2023-01-06T02:39:01.654Z,11.33
2023-01-06T02:44:01.741Z,11.31
2023-01-06T02:49:01.234Z,11.25
2023-01-06T02:54:00.562Z,11.12
2023-01-06T02:58:56.288Z,10.92
2023-01-06T03:03:55.849Z,10.77
2023-01-06T03:08:54.860Z,10.66
2023-01-06T03:13:54.754Z,10.61
2023-01-06T03:18:54.608Z,10.56
2023-01-06T03:23:54.353Z,10.55
2023-01-06T03:28:55.328Z,10.52
2023-01-06T03:33:52.158Z,10.49
2023-01-06T03:38:52.849Z,10.48
2023-01-06T03:43:51.960Z,10.46
2023-01-06T03:48:51.518Z,10.46
2023-01-06T03:53:50.769Z,10.44
2023-01-06T03:58:51.019Z,10.38
2023-01-06T04:03:50.355Z,10.37
2023-01-06T04:08:51.696Z,10.33
2023-01-06T04:13:47.876Z,10.31
2023-01-06T04:18:47.972Z,10.29
2023-01-06T04:23:47.025Z,10.28
2023-01-06T04:28:47.091Z,10.27
2023-01-06T04:33:44.063Z,10.27
2023-01-06T04:38:43.804Z,10.28
2023-01-06T04:43:43.979Z,10.27
2023-01-06T04:48:45.337Z,10.27
2023-01-06T04:53:41.752Z,10.26
2023-01-06T04:58:41.872Z,10.28
2023-01-06T05:00:04.689Z,10.28
2023-01-06T05:05:01.427Z,10.28
2023-01-06T05:10:01.039Z,10.25
2023-01-06T05:15:00.506Z,10.26
2023-01-06T05:20:00.793Z,10.26
2023-01-06T05:24:57.688Z,10.25
2023-01-06T05:29:57.415Z,10.24
2023-01-06T05:34:57.683Z,10.22
2023-01-06T05:39:57.519Z,10.2
2023-01-06T05:44:56.550Z,10.16
2023-01-06T05:49:56.432Z,10.13
2023-01-06T05:54:56.395Z,10.1
2023-01-06T05:58:57.224Z,10.07
2023-01-06T06:03:58.438Z,10.08
2023-01-06T06:08:54.808Z,10.07
2023-01-06T06:13:54.529Z,10.06
2023-01-06T06:18:53.742Z,10.04
2023-01-06T06:23:53.616Z,10.02
2023-01-06T06:28:51.391Z,9.99
2023-01-06T06:33:51.304Z,9.97
2023-01-06T06:38:51.011Z,9.95
2023-01-06T06:43:52.133Z,9.93
2023-01-06T06:48:48.322Z,9.91
2023-01-06T06:53:48.525Z,9.89
2023-01-06T06:58:36.560Z,9.91
2023-01-06T07:03:36.486Z,9.88
2023-01-06T07:08:33.775Z,9.87
2023-01-06T07:13:33.438Z,9.87
2023-01-06T07:18:33.375Z,9.87
2023-01-06T07:23:32.981Z,9.89
2023-01-06T07:28:32.116Z,9.89
2023-01-06T07:33:32.115Z,9.87
2023-01-06T07:38:32.086Z,9.84
2023-01-06T07:43:31.663Z,9.83
2023-01-06T07:48:32.575Z,9.83
2023-01-06T07:53:28.772Z,9.81
2023-01-06T07:58:14.732Z,9.76
2023-01-06T08:03:14.366Z,9.77
2023-01-06T08:08:14.332Z,9.8
2023-01-06T08:13:12.135Z,9.82
2023-01-06T08:18:12.696Z,9.89
2023-01-06T08:23:13.888Z,10.01
2023-01-06T08:28:10.211Z,10.1
2023-01-06T08:33:10.207Z,10.22
2023-01-06T08:38:09.649Z,10.35
2023-01-06T08:43:09.660Z,10.42
2023-01-06T08:48:06.794Z,10.55
2023-01-06T08:53:06.893Z,10.61
2023-01-06T08:58:06.288Z,10.66
2023-01-06T08:59:29.671Z,10.68
2023-01-06T09:04:26.227Z,10.76
2023-01-06T09:09:25.875Z,10.9
2023-01-06T09:14:25.359Z,10.96
2023-01-06T09:19:25.010Z,10.98
2023-01-06T09:24:33.067Z,11.04
2023-01-06T09:29:33.734Z,11.09
2023-01-06T09:34:34.685Z,11.12
2023-01-06T09:39:31.922Z,11.16
2023-01-06T09:44:31.087Z,11.19
2023-01-06T09:49:32.475Z,11.29
2023-01-06T09:54:29.832Z,11.3
2023-01-06T09:59:08.537Z,11.28
2023-01-06T10:04:09.821Z,11.25
2023-01-06T10:09:06.282Z,11.27
2023-01-06T10:14:05.985Z,11.36
2023-01-06T10:19:05.319Z,11.43
2023-01-06T10:24:04.941Z,11.42
2023-01-06T10:29:02.351Z,11.33
2023-01-06T10:34:02.188Z,11.25
2023-01-06T10:39:02.236Z,11.22
2023-01-06T10:44:01.846Z,11.25
2023-01-06T10:49:01.542Z,11.45
2023-01-06T10:54:01.267Z,11.64
2023-01-06T10:58:47.192Z,11.79
2023-01-06T11:00:09.186Z,11.8
2023-01-06T11:05:06.456Z,11.78
2023-01-06T11:10:06.119Z,11.84
2023-01-06T11:15:06.713Z,11.94
2023-01-06T11:20:06.557Z,11.95
2023-01-06T11:25:05.880Z,11.97
2023-01-06T11:30:05.913Z,11.96
2023-01-06T11:35:05.199Z,12.15
2023-01-06T11:40:11.194Z,12.16
2023-01-06T11:45:02.609Z,12.22
2023-01-06T11:50:02.776Z,12.45
2023-01-06T11:55:03.399Z,12.5
2023-01-06T11:59:24.270Z,12.53
2023-01-06T12:04:23.797Z,12.26
2023-01-06T12:09:33.583Z,12.16
2023-01-06T12:14:32.993Z,12.09
2023-01-06T12:19:34.522Z,12.06
2023-01-06T12:24:31.289Z,12.07
2023-01-06T12:29:30.827Z,11.87
2023-01-06T12:34:31.504Z,11.68
2023-01-06T12:39:28.541Z,11.66
2023-01-06T12:44:28.451Z,11.74
2023-01-06T12:49:30.071Z,11.88
2023-01-06T12:54:16.328Z,11.92
2023-01-06T12:59:08.509Z,11.84
2023-01-06T13:04:07.954Z,11.65
2023-01-06T13:09:07.027Z,11.5
2023-01-06T13:15:00.673Z,11.42
2023-01-06T13:19:06.745Z,11.42
2023-01-06T13:24:06.119Z,11.41
2023-01-06T13:29:05.740Z,11.42
2023-01-06T13:34:05.255Z,11.38
2023-01-06T13:39:06.150Z,11.35
2023-01-06T13:44:03.148Z,11.3
2023-01-06T13:49:03.157Z,11.28
2023-01-06T13:54:02.410Z,11.26
2023-01-06T13:58:48.266Z,11.25
2023-01-06T14:00:18.449Z,11.25
2023-01-06T14:05:09.816Z,11.25
2023-01-06T14:10:09.560Z,11.25
2023-01-06T14:15:10.609Z,11.24
2023-01-06T14:20:06.446Z,11.22
2023-01-06T14:25:06.377Z,11.2
2023-01-06T14:30:05.696Z,11.17
2023-01-06T14:35:05.708Z,11.13
2023-01-06T14:40:03.132Z,11.1
2023-01-06T14:45:03.062Z,11.09
2023-01-06T14:50:03.347Z,11.06
2023-01-06T14:55:01.841Z,11.03
2023-01-06T14:59:32.112Z,11
2023-01-06T15:04:32.402Z,10.96
2023-01-06T15:09:33.613Z,10.92
2023-01-06T15:14:30.347Z,10.89
2023-01-06T15:19:30.060Z,10.87
2023-01-06T15:24:31.517Z,10.87
2023-01-06T15:29:29.266Z,10.84
2023-01-06T15:34:29.046Z,10.77
2023-01-06T15:39:31.212Z,10.68
2023-01-06T15:44:27.967Z,10.61
2023-01-06T15:49:27.713Z,10.6
2023-01-06T15:54:29.130Z,10.58
2023-01-06T15:59:05.779Z,10.5
2023-01-06T16:04:05.624Z,10.37
2023-01-06T16:09:04.330Z,10.3
2023-01-06T16:14:04.317Z,10.31
2023-01-06T16:19:01.827Z,10.26
2023-01-06T16:24:01.187Z,10.14
2023-01-06T16:29:01.288Z,10.04
2023-01-06T16:34:02.345Z,10.02
2023-01-06T16:38:58.666Z,10.06
2023-01-06T16:43:58.610Z,10.05
2023-01-06T16:48:57.647Z,9.99
2023-01-06T16:53:57.463Z,9.87
2023-01-06T16:58:43.832Z,9.75
2023-01-06T17:00:05.005Z,9.71
2023-01-06T17:05:04.198Z,9.55
2023-01-06T17:10:05.138Z,9.46
2023-01-06T17:15:01.725Z,9.46
2023-01-06T17:20:01.338Z,9.43
2023-01-06T17:25:00.714Z,9.42
2023-01-06T17:30:00.813Z,9.43
2023-01-06T17:34:57.916Z,9.49
2023-01-06T17:39:57.884Z,9.52
2023-01-06T17:44:57.776Z,9.52
2023-01-06T17:49:57.343Z,9.49
2023-01-06T17:54:56.479Z,9.46
2023-01-06T17:59:16.255Z,9.43
2023-01-06T18:04:16.513Z,9.42
2023-01-06T18:09:17.327Z,9.37
2023-01-06T18:14:15.755Z,9.31
2023-01-06T18:19:15.919Z,9.25
2023-01-06T18:24:15.609Z,9.22
2023-01-06T18:29:13.186Z,9.18
2023-01-06T18:34:12.822Z,9.17
2023-01-06T18:39:13.108Z,9.2
2023-01-06T18:44:12.744Z,9.25
2023-01-06T18:49:12.287Z,9.27
2023-01-06T18:54:11.765Z,9.3
2023-01-06T18:58:35.847Z,9.34
2023-01-06T19:03:35.552Z,9.38
2023-01-06T19:08:36.661Z,9.42
2023-01-06T19:13:32.747Z,9.45
2023-01-06T19:18:32.736Z,9.39
2023-01-06T19:23:31.882Z,9.35
2023-01-06T19:28:31.712Z,9.37
2023-01-06T19:33:28.946Z,9.41
2023-01-06T19:38:28.529Z,9.42
2023-01-06T19:43:28.688Z,9.39
2023-01-06T19:48:28.192Z,9.39
2023-01-06T19:53:27.515Z,9.39
2023-01-06T19:58:14.284Z,9.37
2023-01-06T20:00:02.563Z,9.35
2023-01-06T20:05:03.287Z,9.35
2023-01-06T20:09:59.416Z,9.39
2023-01-06T20:14:59.280Z,9.43
2023-01-06T20:19:58.588Z,9.43
2023-01-06T20:24:58.339Z,9.45
2023-01-06T20:29:55.853Z,9.47
2023-01-06T20:34:55.997Z,9.51
2023-01-06T20:39:55.907Z,9.53
2023-01-06T20:44:55.661Z,9.58
2023-01-06T20:49:54.842Z,9.64
2023-01-06T20:54:54.661Z,9.7
2023-01-06T20:58:56.991Z,9.74
2023-01-06T21:03:56.718Z,9.8
2023-01-06T21:08:57.812Z,9.83
2023-01-06T21:13:54.020Z,9.83
2023-01-06T21:18:53.890Z,9.85
2023-01-06T21:23:53.202Z,9.85
2023-01-06T21:28:53.571Z,9.82
2023-01-06T21:33:51.505Z,9.77
2023-01-06T21:38:52.272Z,9.75
2023-01-06T21:43:51.504Z,9.74
2023-01-06T21:48:51.787Z,9.77
2023-01-06T21:53:51.118Z,9.8
2023-01-06T21:58:51.166Z,9.79
2023-01-06T22:03:48.491Z,9.79
2023-01-06T22:08:48.106Z,9.78
2023-01-06T22:13:48.505Z,9.79
2023-01-06T22:18:48.056Z,9.8
2023-01-06T22:23:47.080Z,9.78
2023-01-06T22:28:46.817Z,9.79
2023-01-06T22:33:47.102Z,9.79
2023-01-06T22:38:46.392Z,9.76
2023-01-06T22:43:47.379Z,9.72
2023-01-06T22:48:45.557Z,9.7
2023-01-06T22:53:43.397Z,9.68
2023-01-06T22:58:43.461Z,9.68
2023-01-06T23:00:14.344Z,9.68
2023-01-06T23:05:04.748Z,9.7
2023-01-06T23:10:04.493Z,9.74
2023-01-06T23:15:04.281Z,9.74
2023-01-06T23:20:05.385Z,9.74
2023-01-06T23:25:02.913Z,9.75
2023-01-06T23:30:03.628Z,9.78
2023-01-06T23:35:04.561Z,9.83
2023-01-06T23:40:01.927Z,9.87
2023-01-06T23:45:02.137Z,9.84
2023-01-06T23:50:01.765Z,9.77
2023-01-06T23:55:00.960Z,9.68
2023-01-06T23:59:31.155Z,9.64
